createdAt,value
2024-04-21T00:01:01.630Z,1.75
2024-04-21T00:06:06.671Z,2.08
2024-04-21T00:11:13.422Z,3.17
2024-04-21T00:16:17.620Z,1.85
2024-04-21T00:21:35.081Z,2.28
2024-04-21T00:26:50.057Z,3.33
2024-04-21T00:31:58.674Z,2.70
2024-04-21T00:37:03.234Z,6.10
2024-04-21T00:42:10.556Z,3.78
2024-04-21T00:47:14.407Z,4.25
2024-04-21T00:52:19.118Z,3.78
2024-04-21T00:57:26.259Z,2.60
2024-04-21T01:02:33.393Z,1.85
2024-04-21T01:07:38.630Z,2.17
2024-04-21T01:12:45.752Z,0.90
2024-04-21T01:17:49.748Z,2.08
2024-04-21T01:22:56.836Z,3.03
2024-04-21T01:28:02.027Z,2.22
2024-04-21T01:33:06.463Z,1.95
2024-04-21T01:38:15.267Z,4.60
2024-04-21T01:43:19.477Z,2.47
2024-04-21T01:48:23.557Z,1.67
2024-04-21T01:53:33.707Z,2.40
2024-04-21T01:58:38.264Z,2.28
2024-04-21T02:03:42.455Z,2.33
2024-04-21T02:08:49.385Z,2.47
2024-04-21T02:13:56.305Z,2.78
2024-04-21T02:19:01.307Z,2.33
2024-04-21T02:24:10.337Z,2.83
2024-04-21T02:29:14.647Z,1.95
2024-04-21T02:39:25.723Z,1.87
2024-04-21T02:44:29.597Z,1.50
2024-04-21T02:49:33.468Z,1.58
2024-04-21T02:54:41.653Z,2.35
2024-04-21T02:59:47.411Z,2.50
2024-04-21T03:04:51.392Z,1.98
2024-04-21T03:09:57.834Z,1.98
2024-04-21T03:15:02.772Z,1.17
2024-04-21T03:30:21.205Z,2.17
2024-04-21T03:35:32.282Z,1.75
2024-04-21T03:40:43.566Z,2.08
2024-04-21T03:45:47.545Z,3.10
2024-04-21T03:50:51.593Z,1.77
2024-04-21T03:56:01.427Z,2.73
2024-04-21T04:01:05.465Z,2.20
2024-04-21T04:06:29.946Z,1.88
2024-04-21T04:11:37.179Z,2.50
2024-04-21T04:16:41.110Z,2.70
2024-04-21T04:21:45.629Z,2.57
2024-04-21T04:26:52.148Z,1.93
2024-04-21T04:31:56.044Z,2.10
2024-04-21T04:37:00.011Z,2.25
2024-04-21T04:42:10.391Z,2.77
2024-04-21T04:47:14.764Z,1.70
2024-04-21T04:52:18.804Z,2.55
2024-04-21T04:57:25.595Z,1.57
2024-04-21T05:02:29.598Z,3.65
2024-04-21T05:07:33.935Z,3.10
2024-04-21T05:12:40.439Z,2.50
2024-04-21T05:17:44.719Z,3.47
2024-04-21T05:22:49.406Z,3.00
2024-04-21T05:27:56.302Z,2.70
2024-04-21T05:33:00.441Z,2.85
2024-04-21T05:38:06.827Z,2.40
2024-04-21T05:43:14.838Z,2.40
2024-04-21T05:48:19.821Z,2.55
2024-04-21T05:53:27.343Z,2.42
2024-04-21T05:58:35.391Z,2.95
2024-04-21T06:03:39.186Z,2.10
2024-04-21T06:08:43.029Z,1.92
2024-04-21T06:13:49.424Z,2.88
2024-04-21T06:18:53.906Z,1.92
2024-04-21T06:23:58.156Z,1.75
2024-04-21T06:29:04.736Z,1.90
2024-04-21T06:34:08.950Z,2.30
2024-04-21T06:39:13.267Z,2.28
2024-04-21T06:49:25.236Z,2.55
2024-04-21T06:54:29.119Z,1.70
2024-04-21T06:59:37.078Z,1.90
2024-04-21T07:04:41.252Z,1.80
2024-04-21T07:09:45.513Z,1.80
2024-04-21T07:14:55.411Z,1.80
2024-04-21T07:19:59.415Z,1.73
2024-04-21T07:25:16.288Z,1.50
2024-04-21T07:30:26.509Z,1.58
2024-04-21T07:35:30.496Z,1.50
2024-04-21T07:40:34.864Z,1.30
2024-04-21T07:45:47.018Z,1.37
2024-04-21T07:50:56.200Z,1.38
2024-04-21T07:56:00.057Z,1.40
2024-04-21T08:01:10.199Z,1.73
2024-04-21T08:06:14.618Z,2.10
2024-04-21T08:11:18.560Z,1.83
2024-04-21T08:16:28.937Z,1.70
2024-04-21T08:21:33.649Z,1.33
2024-04-21T08:31:46.065Z,1.63
2024-04-21T08:36:50.445Z,1.30
2024-04-21T08:41:56.991Z,1.73
2024-04-21T08:47:09.463Z,1.30
2024-04-21T08:52:13.646Z,1.58
2024-04-21T08:57:19.174Z,1.50
2024-04-21T09:02:52.308Z,2.20
2024-04-21T09:07:59.903Z,1.50
2024-04-21T09:13:05.129Z,1.45
2024-04-21T09:18:12.011Z,1.50
2024-04-21T09:23:16.029Z,1.25
2024-04-21T09:28:20.223Z,1.30
2024-04-21T09:33:27.457Z,1.60
2024-04-21T09:38:31.428Z,1.75
2024-04-21T09:43:35.836Z,1.85
2024-04-21T09:48:43.593Z,1.30
2024-04-21T09:53:49.328Z,1.90
2024-04-21T09:58:54.212Z,1.60
2024-04-21T10:04:04.711Z,1.55
2024-04-21T10:09:11.359Z,2.00
2024-04-21T10:14:18.758Z,1.50
2024-04-21T10:19:27.718Z,1.80
2024-04-21T10:24:32.103Z,1.70
2024-04-21T10:29:36.421Z,1.60
2024-04-21T10:34:50.298Z,1.70
2024-04-21T10:40:01.529Z,1.60
2024-04-21T10:45:08.081Z,1.52
2024-04-21T10:50:15.242Z,2.00
2024-04-21T10:55:21.408Z,2.00
2024-04-21T11:00:28.987Z,1.50
2024-04-21T11:05:43.406Z,1.17
2024-04-21T11:10:47.415Z,1.50
2024-04-21T11:15:51.606Z,1.58
2024-04-21T11:20:58.419Z,1.50
2024-04-21T11:26:02.630Z,2.10
2024-04-21T11:31:10.782Z,1.40
2024-04-21T11:36:20.999Z,1.65
2024-04-21T11:41:25.724Z,1.40
2024-04-21T11:46:33.183Z,1.50
2024-04-21T11:51:41.234Z,1.85
2024-04-21T11:56:50.200Z,1.45
2024-04-21T12:01:54.640Z,1.55
2024-04-21T12:07:01.047Z,1.02
2024-04-21T12:12:06.935Z,1.45
2024-04-21T12:17:13.171Z,1.58
2024-04-21T12:22:19.637Z,1.60
2024-04-21T12:27:24.163Z,1.45
2024-04-21T12:32:31.040Z,2.35
2024-04-21T12:37:37.740Z,1.75
2024-04-21T12:42:43.191Z,1.40
2024-04-21T12:47:47.300Z,1.05
2024-04-21T12:52:54.185Z,1.33
2024-04-21T12:57:58.034Z,1.60
2024-04-21T13:03:02.606Z,1.40
2024-04-21T13:08:10.739Z,2.17
2024-04-21T13:13:14.895Z,1.63
2024-04-21T13:18:19.927Z,1.20
2024-04-21T13:23:27.706Z,1.52
2024-04-21T13:28:34.182Z,1.65
2024-04-21T13:33:38.180Z,1.42
2024-04-21T13:38:44.772Z,1.67
2024-04-21T13:43:48.968Z,1.23
2024-04-21T13:48:52.766Z,2.05
2024-04-21T13:54:07.091Z,2.60
2024-04-21T13:59:14.535Z,1.83
2024-04-21T14:04:18.538Z,1.55
2024-04-21T14:09:26.522Z,1.58
2024-04-21T14:14:30.914Z,1.50
2024-04-21T14:19:35.315Z,1.35
2024-04-21T14:24:47.732Z,1.45
2024-04-21T14:29:55.403Z,1.73
2024-04-21T14:35:04.409Z,1.67
2024-04-21T14:40:15.692Z,1.60
2024-04-21T14:45:33.614Z,2.78
2024-04-21T14:50:41.693Z,1.80
2024-04-21T14:55:49.398Z,1.60
2024-04-21T15:00:54.783Z,1.60
2024-04-21T15:05:58.924Z,1.27
2024-04-21T15:11:06.011Z,1.67
2024-04-21T15:16:11.067Z,1.50
2024-04-21T15:21:14.930Z,1.57
2024-04-21T15:26:21.456Z,1.23
2024-04-21T15:31:25.489Z,1.02
2024-04-21T15:36:29.841Z,1.10
2024-04-21T15:41:38.305Z,0.80
2024-04-21T15:46:43.190Z,1.40
2024-04-21T15:51:47.068Z,1.00
2024-04-21T15:56:54.670Z,1.00
2024-04-21T16:01:58.880Z,1.00
2024-04-21T16:07:02.912Z,0.93
2024-04-21T16:12:11.654Z,1.20
2024-04-21T16:17:15.772Z,1.35
2024-04-21T16:22:20.172Z,1.00
2024-04-21T16:27:27.878Z,0.88
2024-04-21T16:32:32.249Z,1.10
2024-04-21T16:37:42.942Z,1.33
2024-04-21T16:42:50.513Z,1.27
2024-04-21T16:47:56.309Z,0.90
2024-04-21T16:53:01.059Z,1.23
2024-04-21T16:58:09.051Z,2.33
2024-04-21T17:03:14.589Z,1.67
2024-04-21T17:08:31.464Z,1.65
2024-04-21T17:13:44.733Z,1.33
2024-04-21T17:18:49.459Z,1.70
2024-04-21T17:23:53.334Z,1.13
2024-04-21T17:29:00.839Z,1.05
2024-04-21T17:34:04.900Z,1.85
2024-04-21T17:39:09.418Z,1.30
2024-04-21T17:44:16.968Z,1.10
2024-04-21T17:49:21.055Z,1.45
2024-04-21T17:54:25.746Z,1.90
2024-04-21T17:59:33.196Z,1.57
2024-04-21T18:04:37.352Z,1.48
2024-04-21T18:09:41.216Z,2.08
2024-04-21T18:14:47.682Z,1.55
2024-04-21T18:19:51.667Z,1.95
2024-04-21T18:24:55.664Z,1.95
2024-04-21T18:30:02.309Z,1.63
2024-04-21T18:35:07.057Z,3.75
2024-04-21T18:40:11.439Z,4.18
2024-04-21T18:45:18.635Z,5.03
2024-04-21T18:50:22.862Z,5.93
2024-04-21T18:55:26.890Z,6.78
2024-04-21T19:00:34.876Z,5.85
2024-04-21T19:05:39.816Z,4.35
2024-04-21T19:10:44.814Z,4.78
2024-04-21T19:15:52.928Z,2.80
2024-04-21T19:20:57.424Z,1.60
2024-04-21T19:26:01.563Z,1.50
2024-04-21T19:31:08.289Z,1.63
2024-04-21T19:36:12.272Z,1.20
2024-04-21T19:41:16.213Z,0.93
2024-04-21T19:46:23.392Z,0.80
2024-04-21T19:51:30.675Z,1.13
2024-04-21T19:56:36.114Z,1.00
2024-04-21T20:01:44.509Z,0.80
2024-04-21T20:06:51.505Z,0.85
2024-04-21T20:11:55.497Z,1.25
2024-04-21T20:17:21.209Z,1.65
2024-04-21T20:22:25.843Z,0.68
2024-04-21T20:27:29.891Z,0.93
2024-04-21T20:32:37.554Z,0.80
2024-04-21T20:37:41.539Z,1.10
2024-04-21T20:42:45.720Z,1.27
2024-04-21T20:47:52.330Z,0.90
2024-04-21T20:52:56.190Z,1.40
2024-04-21T20:58:00.104Z,1.27
2024-04-21T21:03:07.655Z,0.87
2024-04-21T21:08:11.574Z,1.13
2024-04-21T21:13:15.448Z,1.13
2024-04-21T21:18:22.077Z,1.27
2024-04-21T21:23:26.863Z,1.00
2024-04-21T21:28:30.879Z,1.00
2024-04-21T21:33:37.456Z,0.68
2024-04-21T21:38:43.524Z,1.83
2024-04-21T21:43:47.461Z,1.73
2024-04-21T21:48:53.972Z,1.60
2024-04-21T21:53:57.941Z,0.70
2024-04-21T21:59:01.929Z,0.80
2024-04-21T22:04:09.113Z,0.97
2024-04-21T22:09:13.391Z,0.63
2024-04-21T22:14:17.264Z,0.97
2024-04-21T22:19:23.744Z,1.02
2024-04-21T22:24:28.153Z,0.88
2024-04-21T22:29:32.019Z,0.50
2024-04-21T22:34:40.058Z,0.70
2024-04-21T22:39:46.907Z,0.70
2024-04-21T22:44:51.156Z,0.43
2024-04-21T22:49:57.904Z,0.70
2024-04-21T22:55:02.487Z,1.55
2024-04-21T23:00:08.215Z,0.77
2024-04-21T23:05:15.165Z,1.27
2024-04-21T23:10:19.308Z,0.80
2024-04-21T23:15:23.353Z,0.85
2024-04-21T23:20:30.128Z,1.08
2024-04-21T23:25:34.046Z,0.82
2024-04-21T23:30:37.929Z,1.00
2024-04-21T23:35:44.794Z,1.03
2024-04-21T23:40:48.578Z,1.13
2024-04-21T23:45:52.483Z,1.77
2024-04-21T23:50:58.894Z,0.90
2024-04-21T23:56:02.680Z,0.63
